Einstellungen
Deutsches Setting:
view page in German view page in English
Live QuotenvergleichWettportal Community
Login: Passwort:

Quotenarchiv: Tennis - ITF Damen - ITF Damen Templeton (USA) - Hard

Suche im Quotenarchiv

Sportart: Land: Liga:
vom: Zu:
Teilnehmer:

Alle aktuellen Wettquoten für die ITF Damen Templeton (USA) - Hard ITF Damen findet ihr in unserem Quotenvergleich Tennis ITF Damen Templeton (USA) - Hard ITF Damen.

Tennis | International | ITF Women Templeton (USA) - Hard

26.09.2019   1 2
21:45 Giuliana Olmos - Coco Vandeweghe 0:0 4.10 (Ø 3.86) 1.23 (Ø 1.21)
20:45 Grace Min - Gabriela Talaba 0:0 1.66 (Ø 1.59) 2.40 (Ø 2.20)
19:25 Emina Bektas - Hailey Baptiste 0:0 3.00 (Ø 2.88) 1.39 (Ø 1.35)
19:15 Shelby Rogers - Katie Volynets 0:0 1.42 (Ø 1.37) 2.88 (Ø 2.79)
18:00 Jovana Jaksic - Pamela Montez 0:0 1.36 (Ø 1.33) 3.14 (Ø 3.00)
18:00 Hanna Chang - Irina Falconi 2.32 (Ø 2.27) 1.60 (Ø 1.56)
18:00 Catherine Harrison - Elysia Bolton 0:0 1.62 (Ø 1.59) 2.26 (Ø 2.19)
02:35 Coco Vandeweghe - Usue Maitane Arconada 0:0 2.24 (Ø 2.20) 1.62 (Ø 1.60)

Tennis | International | ITF Women Templeton (USA) - Hard

25.09.2019   1 2
23:35 Varvara Lepchenko - Ashley Kratzer 0:0 1.40 (Ø 1.35) 3.05 (Ø 2.91)
21:30 Katie Volynets - Deniz Khazaniuk 0:0 1.73 (Ø 1.70) 2.12 (Ø 2.04)
20:50 Sanaz Marand - Maria Mateas 0:0 2.02 (Ø 1.87) 1.85 (Ø 1.82)
20:35 Gabriela Talaba - Eugenie Bouchard 0:0 3.00 (Ø 2.83) 1.40 (Ø 1.37)
20:00 Anna Morgina - Shelby Rogers 0:0 5.80 (Ø 5.51) 1.12 (Ø 1.10)
18:00 Giuliana Olmos - Sophia Whittle 0:0 1.95 (Ø 1.91) 1.82 (Ø 1.79)
18:00 Ann LI - Catherine Harrison 0:0 1.23 (Ø 1.19) 4.75 (Ø 4.17)
18:00 Pamela Montez - Tara Moore 0:0 2.10 (Ø 2.04) 1.80 (Ø 1.70)
18:00 Emina Bektas - Ellie Douglas 0:0 1.57 (Ø 1.52) 2.40 (Ø 2.34)
01:10 Victoria Duval - Irina Falconi 0:0 1.74 (Ø 1.67) 2.15 (Ø 2.08)
00:35 Kayla Day - Grace Min 0:0 1.94 (Ø 1.91) 1.88 (Ø 1.81)

Tennis | International | ITF Women Templeton (USA) - Hard

23.09.2019   1 2
23:10 Kimmi Hance - Alycia Parks 0:0 3.05 (Ø 2.92) 1.39 (Ø 1.35)
23:00 Tara Moore - Hind Abdelouahid 0:0 1.05 (Ø 1.04) 8.50 (Ø 7.89)
22:15 Sarah Lee - Lorraine M. Guillermo 0:0 2.73 (Ø 2.61) 1.45 (Ø 1.42)
21:40 Sophia Whittle - Keira Jirasook 0:0
21:00 Olivia Tjandramulia - Anna Bright 0:0 1.15 (Ø 1.14) 5.00 (Ø 4.83)
21:00 Pamela Montez - Zoe Gwen Scandalis 0:0 1.33 (Ø 1.30) 3.54 (Ø 3.20)
20:50 Haley Giavara - Tori Kinard 0:0 4.33 (Ø 4.07) 1.22 (Ø 1.19)
20:25 Sanaz Marand - Brynn Boren 0:0 1.06 (Ø 1.05) 8.00 (Ø 7.47)
19:20 Micheline Aubuchon - Michaela Bayerlova 13.00 (Ø 11.29) 1.04 (Ø 1.01)
19:05 Ingrid Neel - Anastasia Nefedova 0:0 1.73 (Ø 1.67) 2.08 (Ø 2.05)
18:55 Ellie Douglas - Amy Zhu 0:0 1.61 (Ø 1.57) 2.39 (Ø 2.24)
17:00 Maria Mateas - Vladica Babic 0:0 2.40 (Ø 2.31) 1.57 (Ø 1.54)
17:00 Hanyu Guo - Ingrid Gamarra Martins 0:0 1.50 (Ø 1.44) 2.73 (Ø 2.54)

Tennis | International | ITF Women Templeton (USA) - Hard

27.09.2018   1 2
23:10 Taylor Townsend - Sesil Karatantcheva 1.40 (Ø 1.32) 4.33 (Ø 3.15)
22:05 Emina Bektas - Amra Sadikovic 0:0 2.07 (Ø 1.92) 2.00 (Ø 1.80)
21:35 Lauren Davis - Madison Brengle 0:0 3.75 (Ø 3.44) 1.33 (Ø 1.27)
20:55 Jovana Jaksic - Marie Bouzkova 0:0 4.33 (Ø 4.00) 1.26 (Ø 1.21)
19:00 Asia Muhammad - Katherine Sebov 0:0 1.82 (Ø 1.78) 2.26 (Ø 1.94)
19:00 Jessica Pegula - Grace Min 0:0 1.44 (Ø 1.40) 3.07 (Ø 2.72)
19:00 Maria Sanchez - Ulrikke Eikeri 0:0 1.61 (Ø 1.57) 2.44 (Ø 2.25)
02:00 Taylor Townsend - Kayla Day 0:0 1.22 (Ø 1.17) 4.50 (Ø 4.40)

Tennis | International | ITF Women Templeton (USA) - Hard

26.09.2018   1 2
21:40 Naomi Broady - Amra Sadikovic 0:0 1.52 (Ø 1.46) 2.74 (Ø 2.51)
21:35 Jamie Loeb - Emina Bektas 0:0 1.57 (Ø 1.52) 2.54 (Ø 2.36)
19:55 Nadia Podoroska - Sofya Zhuk 0:0 2.88 (Ø 2.39) 1.56 (Ø 1.52)
19:50 Jovana Jaksic - Rebecca Marino 0:0 4.70 (Ø 4.34) 1.22 (Ø 1.17)
19:40 Asia Muhammad - Giuliana Olmos 0:0 1.62 (Ø 1.51) 2.54 (Ø 2.40)
18:00 Sesil Karatantcheva - Robin Anderson 0:0 1.75 (Ø 1.64) 2.37 (Ø 2.11)
18:00 Kristie Haerim Ahn - Maria Sanchez 0:0 1.45 (Ø 1.38) 3.04 (Ø 2.80)
18:00 Ulrikke Eikeri - Maria Mateas 1.90 (Ø 1.80) 1.95 (Ø 1.89)
18:00 Maegan Manasse - Grace Min 2.10 (Ø 1.94) 1.91 (Ø 1.77)

Tennis | International | ITF Women Templeton (USA) - Hard

25.09.2018   1 2
23:15 Ann LI - Sophia Whittle 0:0 1.10 (Ø 1.08) 7.10 (Ø 6.65)
21:40 Danielle Lao - Marie Bouzkova 0:0 2.11 (Ø 2.02) 1.75 (Ø 1.71)
20:30 Katherine Sebov - Beatriz Haddad Maia 0:0 3.32 (Ø 3.07) 1.36 (Ø 1.33)
20:10 Ashley Kratzer - Madison Brengle 0:0 3.26 (Ø 3.07) 1.36 (Ø 1.33)
19:35 Jessica Pegula - Louisa Chirico 0:0 1.25 (Ø 1.24) 4.05 (Ø 3.69)
19:35 Lauren Davis - Victoria Duval 0:0 1.73 (Ø 1.71) 2.25 (Ø 2.02)
18:00 Hayley Carter - Giuliana Olmos 2.08 (Ø 1.92) 1.80 (Ø 1.78)
18:00 Maegan Manasse - Quinn Gleason 0:0 1.76 (Ø 1.72) 2.01 (Ø 1.99)
18:00 Hanna Chang - Amra Sadikovic 0:0 2.81 (Ø 2.50) 1.50 (Ø 1.47)
18:00 Robin Anderson - Kai-Chen Chang 0:0 1.62 (Ø 1.59) 2.45 (Ø 2.20)

Tennis | International | ITF Women Templeton (USA) - Hard

24.09.2018   1 2
21:00 Robin Anderson - Ellie Douglas 0:0 1.36 (Ø 1.29) 3.80 (Ø 3.32)
20:25 Hanna Chang - Jennifer Elie 0:0 1.86 (Ø 1.75) 2.10 (Ø 1.96)
19:40 Ana Veselinovic - Kai-Chen Chang 0:0 2.35 (Ø 2.20) 1.67 (Ø 1.59)
19:30 Giuliana Olmos - Tara Moore 0:0 1.53 (Ø 1.46) 2.72 (Ø 2.52)
18:00 Pamela Montez - Quinn Gleason 0:0 2.10 (Ø 1.98) 1.87 (Ø 1.74)
18:00 Amra Sadikovic - Luisa Stefani 0:0 1.36 (Ø 1.30) 3.50 (Ø 3.23)
18:00 Cornelia Lister - Maegan Manasse 0:0 3.04 (Ø 2.82) 1.44 (Ø 1.38)
18:00 Hayley Carter - Olivia Hauger 0:0 1.14 (Ø 1.11) 6.50 (Ø 5.67)
01:05 Robin Anderson - Mary Closs 0:0 1.01 (Ø 1.01) 16.00 (Ø 11.49)
00:45 Ching-Wen Hsu - Ana Veselinovic 0:0 2.50 (Ø 2.45) 1.51 (Ø 1.48)
00:45 Tori Kinard - Kai-Chen Chang 0:0 5.30 (Ø 4.94) 1.15 (Ø 1.13)
00:35 Julia Elbaba - Ellie Douglas 1.82 (Ø 1.78) 1.96 (Ø 1.91)

Tennis | International | ITF Women Templeton (USA) - Hard

23.09.2018   1 2
23:40 Nika Kukharchuk - Hanna Chang 0:0 2.42 (Ø 2.23) 1.61 (Ø 1.58)
23:25 Jada Robinson - Giuliana Olmos 0:0 3.20 (Ø 2.86) 1.40 (Ø 1.37)
22:40 Lorraine M. Guillermo - Jennifer Elie 0:0 2.75 (Ø 2.56) 1.50 (Ø 1.45)
21:40 Dominique Schaefer - Tara Moore 0:0 2.31 (Ø 2.11) 1.67 (Ø 1.63)
20:40 Paula Cristina Goncalves - Pamela Montez 0:0 1.62 (Ø 1.58) 2.36 (Ø 2.23)
20:20 Luisa Stefani - Mai Hontama 0:0 2.50 (Ø 2.44) 1.51 (Ø 1.49)
19:55 Olivia Hauger - Anastasia Nefedova 0:0 3.75 (Ø 3.66) 1.26 (Ø 1.24)
19:30 Sanaz Marand - Amra Sadikovic 0:0 1.90 (Ø 1.84) 1.87 (Ø 1.84)
18:00 Whitney Osuigwe - Hayley Carter 0:0 1.41 (Ø 1.40) 2.79 (Ø 2.72)
18:00 Ashley Lahey - Quinn Gleason 0:0 2.21 (Ø 2.08) 1.72 (Ø 1.66)
18:00 Chanel Simmonds - Cornelia Lister 0:0 1.41 (Ø 1.40) 2.78 (Ø 2.72)
18:00 Christine Maddox - Maegan Manasse 0:0 11.00 (Ø 8.87) 1.04 (Ø 1.03)

Tennis | International | ITF Women Templeton (USA) - Hard

01.10.2017   1 2
22:30 Sachia Vickery - Jamie Loeb 0:0 1.60 (Ø 1.55) 2.73 (Ø 2.32)

Tennis | International | ITF Women Templeton (USA) - Hard

28.09.2017   1 2
22:25 Jamie Loeb - Elena Bovina 0:0 1.40 (Ø 1.28) 3.70 (Ø 3.34)
20:45 Elitsa Kostova - Alisa Kleybanova 0:0 3.32 (Ø 3.17) 1.40 (Ø 1.31)
19:55 Maria Sanchez - Naomi Broady 0:0 2.76 (Ø 2.54) 1.50 (Ø 1.46)
19:30 Taylor Townsend - Louisa Chirico 0:0 1.72 (Ø 1.63) 2.35 (Ø 2.16)
19:00 Marina Erakovic - Anna Karolina Schmiedlova 1.95 (Ø 1.83) 2.00 (Ø 1.86)
18:00 Viktorija Golubic - Quinn Gleason 0:0 1.11 (Ø 1.08) 7.90 (Ø 6.74)
18:00 Sachia Vickery - Mari Osaka 0:0 1.29 (Ø 1.23) 4.00 (Ø 3.75)

Tennis | International | ITF Women Templeton (USA) - Hard

27.09.2017   1 2
23:15 Sophia Whittle - Francoise Abanda 0:0 13.50 (Ø 10.70) 1.03 (Ø 1.02)
23:00 Elitsa Kostova - Sabrina Santamaria 0:0 1.36 (Ø 1.32) 3.45 (Ø 3.14)
22:30 Jamie Loeb - Robin Anderson 0:0 2.00 (Ø 1.88) 1.91 (Ø 1.82)
21:25 Sachia Vickery - Amra Sadikovic 0:0 1.29 (Ø 1.26) 3.75 (Ø 3.53)
21:00 Anastasia Potapova - Elena Bovina 1.18 (Ø 1.16) 6.00 (Ø 4.90)
20:10 Taylor Townsend - Anna Tatishvili 0:0 1.26 (Ø 1.23) 4.00 (Ø 3.78)
20:10 Katie Boulter - Maria Sanchez 0:0 2.31 (Ø 2.22) 1.64 (Ø 1.60)
20:00 Danielle Lao - Mari Osaka 0:0 1.38 (Ø 1.34) 3.10 (Ø 3.01)
19:30 Alisa Kleybanova - Sofia Kenin 2.01 (Ø 1.90) 1.91 (Ø 1.81)
18:00 Viktorija Golubic - Ashley Kratzer 0:0 1.14 (Ø 1.11) 6.49 (Ø 5.61)
18:00 Emina Bektas - Quinn Gleason 0:0 1.36 (Ø 1.31) 3.40 (Ø 3.17)
18:00 Louisa Chirico - Ulrikke Eikeri 0:0 1.26 (Ø 1.24) 4.00 (Ø 3.72)
18:00 Sesil Karatantcheva - Naomi Broady 0:0 2.00 (Ø 1.87) 1.95 (Ø 1.84)

Tennis | International | ITF Women Templeton (USA) - Hard

26.09.2017   1 2
20:30 Chanel Simmonds - Anna Karolina Schmiedlova 0:0 3.60 (Ø 3.47) 1.33 (Ø 1.27)
20:00 Laura Robson - Camilla Rosatello 0:0 1.53 (Ø 1.49) 2.75 (Ø 2.45)
19:30 Marina Erakovic - Grace Min 0:0 1.85 (Ø 1.70) 2.15 (Ø 2.03)
18:00 Lorraine M. Guillermo - Sabrina Santamaria 0:0 2.80 (Ø 2.71) 1.42 (Ø 1.39)
18:00 Sandra Samir - Anna Tatishvili 0:0 2.02 (Ø 1.88) 1.87 (Ø 1.79)
18:00 Hanna Chang - Alisa Kleybanova 0:0 5.50 (Ø 4.97) 1.23 (Ø 1.13)
18:00 Anna Ustinoff - Elena Bovina 0:0 18.00 (Ø 12.07) 1.02 (Ø 1.01)

Tennis | International | ITF Women Templeton (USA) - Hard

25.09.2017   1 2
21:55 Erin Routliffe - Alisa Kleybanova 0:0 7.70 (Ø 6.86) 1.10 (Ø 1.07)
20:45 Jessica Anzo - Sabrina Santamaria 0:0 13.00 (Ø 10.45) 1.02 (Ø 1.02)
20:35 Sandra Samir - Lauren Marker 0:0 1.30 (Ø 1.28) 3.60 (Ø 3.27)
19:50 Eva Raszkiewicz - Anna Ustinoff 0:0 1.08 (Ø 1.07) 7.30 (Ø 6.71)
18:00 Ashley Weinhold - Elena Bovina 0:0 3.02 (Ø 2.91) 1.36 (Ø 1.35)
18:00 Hanna Chang - Urszula Radwanksa 0:0 2.38 (Ø 2.20) 1.61 (Ø 1.58)
18:00 Alexa Mathison Guarachi - Lorraine M. Guillermo 0:0 1.70 (Ø 1.62) 2.55 (Ø 2.15)
18:00 Anna Tatishvili - Sanaz Marand 0:0 1.87 (Ø 1.82) 1.92 (Ø 1.84)

Tennis | International | ITF Women Templeton (USA) - Hard

24.09.2017   1 2
23:45 Emma Christine Higuchi - Alisa Kleybanova 0:0 8.30 (Ø 7.55) 1.06 (Ø 1.05)
23:45 Ashley Kratzer - Eva Raszkiewicz 1.03 (Ø 1.02) 11.50 (Ø 10.42)
23:00 Gabriella Bongiovanni - Sabrina Santamaria 0:0 28.00 (Ø 28.00) 1.00 (Ø 1.00)
22:10 Rhiann Newborn - Sanaz Marand 0:0 10.00 (Ø 8.62) 1.04 (Ø 1.04)
21:45 Jessica Anzo - Madeleine Kobelt 0:0 4.33 (Ø 4.21) 1.21 (Ø 1.19)
21:00 Salma Abdel Rahim - Anna Ustinoff 0:0 1.87 (Ø 1.81) 1.98 (Ø 1.86)
21:00 Ashley Weinhold - Morgan McCray 0:0 1.01 (Ø 1.01) 16.00 (Ø 13.47)
20:25 Megan McCray - Elena Bovina 0:0 2.50 (Ø 2.45) 1.51 (Ø 1.49)
19:45 Sandra Samir - Theresa Papikian 0:0 1.04 (Ø 1.03) 10.00 (Ø 8.63)
19:30 Laura Deigman - Anna Tatishvili 0:0 7.70 (Ø 7.13) 1.07 (Ø 1.06)
19:30 Hannah Zhao - Lauren Marker 0:0 3.50 (Ø 3.40) 1.29 (Ø 1.27)
18:00 Urszula Radwanksa - Zoe Gwen Scandalis 0:0 1.07 (Ø 1.06) 7.70 (Ø 7.13)
18:00 Sylvia Schenck - Lorraine M. Guillermo 18.00 (Ø 16.50) 1.01 (Ø 1.00)
18:00 Hanna Chang - Nika Kukharchuk 0:0 1.32 (Ø 1.30) 3.34 (Ø 3.16)
18:00 Alexa Mathison Guarachi - Naomi Cheong 0:0 1.34 (Ø 1.31) 3.25 (Ø 3.15)